CheckWX is a tool to help pilots better visualize weather data.  It is not intended as a substitute for an official pre-flight weather briefing.

15:27:51 UTC

KMSP TAF
Minneapolis-St Paul International / Wold-Chamberlain Airport
Minneapolis, Minnesota, USA
KMSP 171431Z 1715/1818 14008KT P6SM FEW180 FM180600 14009KT P6SM BKN250 WS020/18040KT FM181400 15014G23KT P6SM BKN250

Oct-17@
15:00 UTC

Oct-17 @ 15:00 UTC

Oct-18@
06:00 UTC

Oct-18 @ 06:00 UTC

KMSP 171431Z 1715/1818 14008KT P6SM FEW180
Wind
  • 140° at 8 KTS
Cloud Levels
  • Few at 18,000' AGL

Oct-18@
06:00 UTC

Oct-18 @ 06:00 UTC

Oct-18@
14:00 UTC

Oct-18 @ 14:00 UTC

FM180600 14009KT P6SM BKN250 WS020/18040KT

From

From Standard forecast or significant change

Wind
  • 140° at 9 KTS
Cloud Levels
  • Broken at 25,000' AGL

Oct-18@
14:00 UTC

Oct-18 @ 14:00 UTC

Oct-18@
18:00 UTC

Oct-18 @ 18:00 UTC

FM181400 15014G23KT P6SM BKN250

From

From Standard forecast or significant change

Wind
  • 150° at 14 KTS
  • {Gusting to 23 KTS
Cloud Levels
  • Broken at 25,000' AGL